createdAt,value
2023-04-18T00:00:44.270Z,8.95
2023-04-18T00:03:16.592Z,8.87
2023-04-18T00:05:47.909Z,8.78
2023-04-18T00:08:16.340Z,8.81
2023-04-18T00:10:46.609Z,8.84
2023-04-18T00:13:20.869Z,8.81
2023-04-18T00:15:54.027Z,8.81
2023-04-18T00:18:22.293Z,8.77
2023-04-18T00:20:50.904Z,8.67
2023-04-18T00:23:21.407Z,8.65
2023-04-18T00:25:49.963Z,8.69
2023-04-18T00:28:19.867Z,8.83
2023-04-18T00:30:52.544Z,8.74
2023-04-18T00:33:21.178Z,8.80
2023-04-18T00:35:49.343Z,8.95
2023-04-18T00:38:17.803Z,8.73
2023-04-18T00:40:46.179Z,8.59
2023-04-18T00:43:15.764Z,8.45
2023-04-18T00:45:44.843Z,8.34
2023-04-18T00:48:15.531Z,8.49
2023-04-18T00:50:45.423Z,8.57
2023-04-18T00:53:16.388Z,8.23
2023-04-18T00:55:46.434Z,8.07
2023-04-18T00:58:15.472Z,8.11
2023-04-18T01:00:44.555Z,8.00
2023-04-18T01:03:15.448Z,7.98
2023-04-18T01:05:44.255Z,7.95
2023-04-18T01:08:12.840Z,7.91
2023-04-18T01:10:41.802Z,7.90
2023-04-18T01:13:15.153Z,7.93
2023-04-18T01:15:44.608Z,7.59
2023-04-18T01:18:13.919Z,7.45
2023-04-18T01:20:47.315Z,7.49
2023-04-18T01:23:16.251Z,7.39
2023-04-18T01:25:47.108Z,7.41
2023-04-18T01:28:16.429Z,7.32
2023-04-18T01:30:45.140Z,7.25
2023-04-18T01:33:13.544Z,7.39
2023-04-18T01:35:43.145Z,7.50
2023-04-18T01:38:11.440Z,7.69
2023-04-18T01:40:40.187Z,7.65
2023-04-18T01:43:10.812Z,7.56
2023-04-18T01:45:40.018Z,7.39
2023-04-18T01:48:12.115Z,7.30
2023-04-18T01:50:43.392Z,7.21
2023-04-18T01:53:12.561Z,7.11
2023-04-18T01:55:42.338Z,7.06
2023-04-18T01:58:11.960Z,7.01
2023-04-18T02:00:41.205Z,7.23
2023-04-18T02:03:10.066Z,7.13
2023-04-18T02:05:38.547Z,7.01
2023-04-18T02:08:11.618Z,7.04
2023-04-18T02:10:40.641Z,7.05
2023-04-18T02:13:09.124Z,6.92
2023-04-18T02:15:39.136Z,6.76
2023-04-18T02:18:09.599Z,6.64
2023-04-18T02:20:41.366Z,6.72
2023-04-18T02:23:09.943Z,6.84
2023-04-18T02:25:38.536Z,6.93
2023-04-18T02:28:07.621Z,7.11
2023-04-18T02:30:36.062Z,7.02
2023-04-18T02:33:06.828Z,7.01
2023-04-18T02:35:35.187Z,7.05
2023-04-18T02:38:03.348Z,7.10
2023-04-18T02:40:33.183Z,6.94
2023-04-18T02:43:02.606Z,6.80
2023-04-18T02:45:30.782Z,6.60
2023-04-18T02:48:04.474Z,6.45
2023-04-18T02:50:36.601Z,6.32
2023-04-18T02:53:05.239Z,6.55
2023-04-18T02:55:46.930Z,6.66
2023-04-18T02:58:15.646Z,6.83
2023-04-18T03:01:18.996Z,6.83
2023-04-18T03:03:57.040Z,6.72
2023-04-18T03:06:41.701Z,6.63
2023-04-18T03:09:10.185Z,6.56
2023-04-18T03:11:44.905Z,6.52
2023-04-18T03:14:15.000Z,6.46
2023-04-18T03:16:53.895Z,6.44
2023-04-18T03:19:28.036Z,6.67
2023-04-18T03:21:59.288Z,6.67
2023-04-18T03:24:29.385Z,6.82
2023-04-18T03:27:01.409Z,6.73
2023-04-18T03:29:30.316Z,6.65
2023-04-18T03:31:59.193Z,6.78
2023-04-18T03:34:31.496Z,6.67
2023-04-18T03:37:03.213Z,6.81
2023-04-18T03:39:35.891Z,6.75
2023-04-18T03:42:05.266Z,6.75
2023-04-18T03:44:35.172Z,6.66
2023-04-18T03:47:05.574Z,6.55
2023-04-18T03:49:40.505Z,6.45
2023-04-18T03:52:11.053Z,6.46
2023-04-18T03:54:39.472Z,6.38
2023-04-18T03:57:08.419Z,6.28
2023-04-18T03:59:39.217Z,6.16
2023-04-18T04:02:08.385Z,6.07
2023-04-18T04:04:37.482Z,5.99
2023-04-18T04:07:06.077Z,5.96
2023-04-18T04:09:35.915Z,5.87
2023-04-18T04:12:04.263Z,5.75
2023-04-18T04:14:32.976Z,5.71
2023-04-18T04:17:02.110Z,5.69
2023-04-18T04:19:31.693Z,5.72
2023-04-18T04:22:10.130Z,5.77
2023-04-18T04:24:42.737Z,5.79
2023-04-18T04:27:12.629Z,5.80
2023-04-18T04:29:43.678Z,5.90
2023-04-18T04:32:12.987Z,6.00
2023-04-18T04:34:43.449Z,6.16
2023-04-18T04:37:15.277Z,6.26
2023-04-18T04:40:00.500Z,6.28
2023-04-18T04:42:43.879Z,6.22
2023-04-18T04:45:20.175Z,6.17
2023-04-18T04:47:48.468Z,6.22
2023-04-18T04:50:16.798Z,6.22
2023-04-18T04:52:46.007Z,6.20
2023-04-18T04:55:24.597Z,6.27
2023-04-18T04:57:52.763Z,6.34
2023-04-18T05:00:39.984Z,6.54
2023-04-18T05:03:12.719Z,6.52
2023-04-18T05:05:41.242Z,6.61
2023-04-18T05:08:09.661Z,6.68
2023-04-18T05:10:39.584Z,6.80
2023-04-18T05:13:08.242Z,6.90
2023-04-18T05:15:37.921Z,7.01
2023-04-18T05:18:06.582Z,7.11
2023-04-18T05:20:35.077Z,7.28
2023-04-18T05:23:03.524Z,7.45
2023-04-18T05:25:33.538Z,7.52
2023-04-18T05:28:05.296Z,7.65
2023-04-18T05:30:33.659Z,7.65
2023-04-18T05:33:02.546Z,7.68
2023-04-18T05:35:32.060Z,7.85
2023-04-18T05:38:00.868Z,7.81
2023-04-18T05:40:30.263Z,7.99
2023-04-18T05:42:58.729Z,7.85
2023-04-18T05:45:28.798Z,7.81
2023-04-18T05:47:57.301Z,7.81
2023-04-18T05:50:26.092Z,7.83
2023-04-18T05:52:54.954Z,8.04
2023-04-18T05:55:23.468Z,7.98
2023-04-18T05:57:52.447Z,8.00
2023-04-18T06:00:21.637Z,8.27
2023-04-18T06:02:55.309Z,8.06
2023-04-18T06:05:24.512Z,8.08
2023-04-18T06:07:53.052Z,8.12
2023-04-18T06:10:23.197Z,8.16
2023-04-18T06:12:52.007Z,8.15
2023-04-18T06:15:21.335Z,8.12
2023-04-18T06:17:51.306Z,8.37
2023-04-18T06:20:31.402Z,8.44
2023-04-18T06:23:00.030Z,8.32
2023-04-18T06:25:28.862Z,8.35
2023-04-18T06:27:57.504Z,8.31
2023-04-18T06:30:26.075Z,8.46
2023-04-18T06:32:56.305Z,8.29
2023-04-18T06:35:26.648Z,8.62
2023-04-18T06:37:55.597Z,9.02
2023-04-18T06:40:26.364Z,8.97
2023-04-18T06:42:55.524Z,9.09
2023-04-18T06:45:24.342Z,9.26
2023-04-18T06:47:53.535Z,9.47
2023-04-18T06:50:24.787Z,9.23
2023-04-18T06:52:53.151Z,9.45
2023-04-18T06:55:22.311Z,9.31
2023-04-18T06:57:50.747Z,9.54
2023-04-18T07:00:19.441Z,9.18
2023-04-18T07:02:47.991Z,8.97
2023-04-18T07:05:16.174Z,9.48
2023-04-18T07:07:46.841Z,9.24
2023-04-18T07:10:15.403Z,9.25
2023-04-18T07:12:44.822Z,9.17
2023-04-18T07:15:13.186Z,9.12
2023-04-18T07:17:45.648Z,9.17
2023-04-18T07:20:14.626Z,9.46
2023-04-18T07:22:44.179Z,9.30
2023-04-18T07:25:14.160Z,9.25
2023-04-18T07:27:42.639Z,9.21
2023-04-18T07:30:12.053Z,9.19
2023-04-18T07:32:41.165Z,9.21
2023-04-18T07:35:10.169Z,9.40
2023-04-18T07:37:38.865Z,9.34
2023-04-18T07:40:10.225Z,9.19
2023-04-18T07:42:39.959Z,9.10
2023-04-18T07:45:08.836Z,9.15
2023-04-18T07:47:38.265Z,8.98
2023-04-18T07:50:07.535Z,9.04
2023-04-18T07:52:36.817Z,8.93
2023-04-18T07:55:09.210Z,8.86
2023-04-18T07:57:39.285Z,8.85
2023-04-18T08:00:09.368Z,8.91
2023-04-18T08:02:45.008Z,9.03
2023-04-18T08:05:13.984Z,9.16
2023-04-18T08:07:42.134Z,9.28
2023-04-18T08:10:11.462Z,9.23
2023-04-18T08:12:41.703Z,9.40
2023-04-18T08:15:10.789Z,9.30
2023-04-18T08:17:43.821Z,9.06
2023-04-18T08:20:13.079Z,9.17
2023-04-18T08:22:53.672Z,9.24
2023-04-18T08:25:29.998Z,9.35
2023-04-18T08:28:00.134Z,9.32
2023-04-18T08:30:29.387Z,9.46
2023-04-18T08:32:57.667Z,9.47
2023-04-18T08:35:25.994Z,9.60
2023-04-18T08:37:55.519Z,9.81
2023-04-18T08:40:23.949Z,9.74
2023-04-18T08:42:54.312Z,9.77
2023-04-18T08:45:26.257Z,9.97
2023-04-18T08:47:56.142Z,10.13
2023-04-18T08:50:24.938Z,10.12
2023-04-18T08:52:56.488Z,10.35
2023-04-18T08:55:25.273Z,10.28
2023-04-18T08:57:55.747Z,10.27
2023-04-18T09:00:30.782Z,10.43
2023-04-18T09:02:59.432Z,10.44
2023-04-18T09:05:28.516Z,10.47
2023-04-18T09:07:58.423Z,10.43
2023-04-18T09:10:29.094Z,10.28
2023-04-18T09:12:58.752Z,10.58
2023-04-18T09:15:29.229Z,11.11
2023-04-18T09:18:00.562Z,11.10
2023-04-18T09:20:39.225Z,11.37
2023-04-18T09:23:10.788Z,11.39
2023-04-18T09:25:46.438Z,11.68
2023-04-18T09:28:26.991Z,12.09
2023-04-18T09:31:01.490Z,11.96
2023-04-18T09:33:32.616Z,11.66
2023-04-18T09:36:19.640Z,11.40
2023-04-18T09:38:53.725Z,11.38
2023-04-18T09:41:24.584Z,11.46
2023-04-18T09:44:14.450Z,11.90
2023-04-18T09:46:47.472Z,11.89
2023-04-18T09:49:16.986Z,12.14
2023-04-18T09:51:46.802Z,12.63
2023-04-18T09:54:18.181Z,12.74
2023-04-18T09:56:51.824Z,13.20
2023-04-18T09:59:34.419Z,13.39
2023-04-18T10:02:08.088Z,13.62
2023-04-18T10:04:37.229Z,13.54
2023-04-18T10:07:07.373Z,13.86
2023-04-18T10:09:36.797Z,13.96
2023-04-18T10:12:07.671Z,14.43
2023-04-18T10:14:37.319Z,14.51
2023-04-18T10:17:07.323Z,14.84
2023-04-18T10:19:36.596Z,14.60
2023-04-18T10:22:04.833Z,14.83
2023-04-18T10:24:49.937Z,14.84
2023-04-18T10:27:19.453Z,14.45
2023-04-18T10:29:48.703Z,14.24
2023-04-18T10:32:19.688Z,14.72
2023-04-18T10:34:48.939Z,14.75
2023-04-18T10:37:20.908Z,14.33
2023-04-18T10:39:52.763Z,15.16
2023-04-18T10:42:49.714Z,15.53
2023-04-18T10:45:19.006Z,15.54
2023-04-18T10:47:49.190Z,16.10
2023-04-18T10:50:18.786Z,16.07
2023-04-18T10:52:46.947Z,16.22
2023-04-18T10:55:21.251Z,16.60
2023-04-18T10:57:51.377Z,16.85
2023-04-18T11:00:21.602Z,16.37
2023-04-18T11:02:56.009Z,16.62
2023-04-18T11:05:26.972Z,17.06
2023-04-18T11:07:56.041Z,17.68
2023-04-18T11:10:29.693Z,17.87
2023-04-18T11:13:04.490Z,18.02
2023-04-18T11:15:35.389Z,16.75
2023-04-18T11:18:05.952Z,16.02
2023-04-18T11:20:39.751Z,16.40
2023-04-18T11:23:19.038Z,17.16
2023-04-18T11:25:47.608Z,17.78
2023-04-18T11:28:20.835Z,17.15
2023-04-18T11:30:49.872Z,17.85
2023-04-18T11:33:19.476Z,17.59
2023-04-18T11:35:48.059Z,17.97
2023-04-18T11:38:17.199Z,18.97
2023-04-18T11:40:49.330Z,18.96
2023-04-18T11:43:23.147Z,19.45
2023-04-18T11:45:56.663Z,18.65
2023-04-18T11:48:36.176Z,18.31
2023-04-18T11:51:04.748Z,17.55
2023-04-18T11:53:38.092Z,18.16
2023-04-18T11:56:07.278Z,17.98
2023-04-18T11:58:36.684Z,17.30
2023-04-18T12:01:16.971Z,16.50
2023-04-18T12:04:01.169Z,16.68
2023-04-18T12:06:29.605Z,16.25
2023-04-18T12:09:01.430Z,16.10
2023-04-18T12:11:30.458Z,15.67
2023-04-18T12:13:58.730Z,16.05
2023-04-18T12:16:29.179Z,16.08
2023-04-18T12:19:03.083Z,16.08
2023-04-18T12:21:32.959Z,15.52
2023-04-18T12:24:01.533Z,15.37
2023-04-18T12:26:30.546Z,15.46
2023-04-18T12:29:01.949Z,15.31
2023-04-18T12:31:30.257Z,15.29
2023-04-18T12:34:00.008Z,15.32
2023-04-18T12:36:29.631Z,14.44
2023-04-18T12:38:58.591Z,14.17
2023-04-18T12:41:27.301Z,14.58
2023-04-18T12:43:56.489Z,14.76
2023-04-18T12:46:25.419Z,15.03
2023-04-18T12:48:53.740Z,15.19
2023-04-18T12:51:23.021Z,14.73
2023-04-18T12:53:53.429Z,14.61
2023-04-18T12:56:25.282Z,15.10
2023-04-18T12:58:54.722Z,14.86
2023-04-18T13:01:24.297Z,14.99
2023-04-18T13:04:04.067Z,15.29
2023-04-18T13:06:39.560Z,15.06
2023-04-18T13:09:10.369Z,15.25
2023-04-18T13:11:40.613Z,15.03
2023-04-18T13:14:09.190Z,15.38
2023-04-18T13:16:40.106Z,15.07
2023-04-18T13:19:13.464Z,15.12
2023-04-18T13:21:42.143Z,14.82
2023-04-18T13:24:12.251Z,15.05
2023-04-18T13:26:41.117Z,15.03
2023-04-18T13:29:11.601Z,15.21
2023-04-18T13:31:40.169Z,15.73
2023-04-18T13:34:08.826Z,15.59
2023-04-18T13:36:37.421Z,15.41
2023-04-18T13:39:05.943Z,15.31
2023-04-18T13:41:35.885Z,15.17
2023-04-18T13:44:05.089Z,15.20
2023-04-18T13:46:33.416Z,14.99
2023-04-18T13:49:02.428Z,14.76
2023-04-18T13:51:31.067Z,15.14
2023-04-18T13:54:01.072Z,15.21
2023-04-18T13:56:30.051Z,15.52
2023-04-18T13:58:59.576Z,15.39
2023-04-18T14:01:27.861Z,15.16
2023-04-18T14:03:56.636Z,15.19
2023-04-18T14:06:27.818Z,15.40
2023-04-18T14:08:56.528Z,15.73
2023-04-18T14:11:24.859Z,15.53
2023-04-18T14:13:53.232Z,15.56
2023-04-18T14:16:23.401Z,15.73
2023-04-18T14:18:51.949Z,15.89
2023-04-18T14:21:20.167Z,16.08
2023-04-18T14:23:48.826Z,15.67
2023-04-18T14:26:17.644Z,15.90
2023-04-18T14:28:46.990Z,15.25
2023-04-18T14:31:16.800Z,15.43
2023-04-18T14:33:46.523Z,15.36
2023-04-18T14:36:16.896Z,15.27
2023-04-18T14:38:48.971Z,15.54
2023-04-18T14:41:17.873Z,15.63
2023-04-18T14:43:46.253Z,15.50
2023-04-18T14:46:16.488Z,15.97
2023-04-18T14:48:47.636Z,16.09
2023-04-18T14:51:16.425Z,16.15
2023-04-18T14:53:45.831Z,16.18
2023-04-18T14:56:16.434Z,16.43
2023-04-18T14:58:44.985Z,16.50
2023-04-18T15:01:13.299Z,16.72
2023-04-18T15:03:41.994Z,16.89
2023-04-18T15:06:12.086Z,16.75
2023-04-18T15:08:40.736Z,16.48
2023-04-18T15:11:09.055Z,16.26
2023-04-18T15:13:39.061Z,15.69
2023-04-18T15:16:08.450Z,15.62
2023-04-18T15:18:37.275Z,15.63
2023-04-18T15:21:05.808Z,15.65
2023-04-18T15:23:35.306Z,15.60
2023-04-18T15:26:03.824Z,15.42
2023-04-18T15:28:32.838Z,15.54
2023-04-18T15:31:01.513Z,15.26
2023-04-18T15:33:29.713Z,15.38
2023-04-18T15:35:59.386Z,15.57
2023-04-18T15:38:27.494Z,15.55
2023-04-18T15:40:57.842Z,15.56
2023-04-18T15:43:26.481Z,15.44
2023-04-18T15:45:54.945Z,15.76
2023-04-18T15:48:23.865Z,16.30
2023-04-18T15:50:54.192Z,16.74
2023-04-18T15:53:24.267Z,16.70
2023-04-18T15:55:53.713Z,16.41
2023-04-18T15:58:24.302Z,16.67
2023-04-18T16:00:52.770Z,16.49
2023-04-18T16:03:23.778Z,16.17
2023-04-18T16:05:53.593Z,15.68
2023-04-18T16:08:21.912Z,15.48
2023-04-18T16:10:53.725Z,15.37
2023-04-18T16:13:23.299Z,15.43
2023-04-18T16:15:51.762Z,15.38
2023-04-18T16:18:20.210Z,15.12
2023-04-18T16:20:48.477Z,15.23
2023-04-18T16:23:16.942Z,15.16
2023-04-18T16:25:45.808Z,15.12
2023-04-18T16:28:14.464Z,14.97
2023-04-18T16:30:45.740Z,14.90
2023-04-18T16:33:14.162Z,14.77
2023-04-18T16:35:42.843Z,14.53
2023-04-18T16:38:11.093Z,14.56
2023-04-18T16:40:39.914Z,14.51
2023-04-18T16:43:08.081Z,14.55
2023-04-18T16:45:36.498Z,14.48
2023-04-18T16:48:06.792Z,14.52
2023-04-18T16:50:35.189Z,14.47
2023-04-18T16:53:03.364Z,14.45
2023-04-18T16:55:34.351Z,14.40
2023-04-18T16:58:10.230Z,14.36
2023-04-18T17:00:38.803Z,14.38
2023-04-18T17:03:10.430Z,14.23
2023-04-18T17:05:39.527Z,14.06
2023-04-18T17:08:08.639Z,13.97
2023-04-18T17:10:36.942Z,14.02
2023-04-18T17:13:05.878Z,13.96
2023-04-18T17:15:34.179Z,14.14
2023-04-18T17:18:03.040Z,13.95
2023-04-18T17:20:36.246Z,13.97
2023-04-18T17:23:04.890Z,13.77
2023-04-18T17:25:33.362Z,13.81
2023-04-18T17:28:02.735Z,13.78
2023-04-18T17:30:31.324Z,13.71
2023-04-18T17:32:59.581Z,13.73
2023-04-18T17:35:29.325Z,13.70
2023-04-18T17:37:59.859Z,13.59
2023-04-18T17:40:28.830Z,13.58
2023-04-18T17:42:57.017Z,13.33
2023-04-18T17:45:26.209Z,13.34
2023-04-18T17:47:57.069Z,13.30
2023-04-18T17:50:25.754Z,13.10
2023-04-18T17:52:56.311Z,13.01
2023-04-18T17:55:30.306Z,13.07
2023-04-18T17:57:58.501Z,13.00
2023-04-18T18:00:27.552Z,12.93
2023-04-18T18:02:58.112Z,12.88
2023-04-18T18:05:27.160Z,12.91
2023-04-18T18:07:57.565Z,12.73
2023-04-18T18:10:26.647Z,12.66
2023-04-18T18:12:58.038Z,12.72
2023-04-18T18:15:26.321Z,12.66
2023-04-18T18:17:56.032Z,12.54
2023-04-18T18:20:27.344Z,12.44
2023-04-18T18:22:57.415Z,12.37
2023-04-18T18:25:25.932Z,12.36
2023-04-18T18:27:56.181Z,12.31
2023-04-18T18:30:28.798Z,12.29
2023-04-18T18:32:58.456Z,12.26
2023-04-18T18:35:27.771Z,12.24
2023-04-18T18:37:58.783Z,12.19
2023-04-18T18:40:27.220Z,12.20
2023-04-18T18:42:57.598Z,12.12
2023-04-18T18:45:27.364Z,12.20
2023-04-18T18:47:55.769Z,12.05
2023-04-18T18:50:24.545Z,12.07
2023-04-18T18:52:52.796Z,11.97
2023-04-18T18:55:22.094Z,11.93
2023-04-18T18:57:50.491Z,11.93
2023-04-18T19:00:19.411Z,11.88
2023-04-18T19:02:49.615Z,11.88
2023-04-18T19:05:17.928Z,11.92
2023-04-18T19:07:46.011Z,11.95
2023-04-18T19:10:14.301Z,11.92
2023-04-18T19:12:42.815Z,11.78
2023-04-18T19:15:13.003Z,11.77
2023-04-18T19:17:41.680Z,11.88
2023-04-18T19:20:14.731Z,11.90
2023-04-18T19:22:43.079Z,11.71
2023-04-18T19:25:16.721Z,11.68
2023-04-18T19:27:46.067Z,11.60
2023-04-18T19:30:14.468Z,11.59
2023-04-18T19:32:43.395Z,11.55
2023-04-18T19:35:17.365Z,11.63
2023-04-18T19:37:46.445Z,11.69
2023-04-18T19:40:16.286Z,11.67
2023-04-18T19:42:46.039Z,11.58
2023-04-18T19:45:15.233Z,11.55
2023-04-18T19:47:44.358Z,11.60
2023-04-18T19:50:17.172Z,11.53
2023-04-18T19:52:45.448Z,11.57
2023-04-18T19:55:13.585Z,11.45
2023-04-18T19:57:42.975Z,11.32
2023-04-18T20:00:12.938Z,11.23
2023-04-18T20:02:42.460Z,11.21
2023-04-18T20:05:12.564Z,11.21
2023-04-18T20:07:42.697Z,11.18
2023-04-18T20:10:11.715Z,11.23
2023-04-18T20:12:41.862Z,11.17
2023-04-18T20:15:11.217Z,11.06
2023-04-18T20:17:39.642Z,11.00
2023-04-18T20:20:11.340Z,10.99
2023-04-18T20:22:43.312Z,10.87
2023-04-18T20:25:13.022Z,10.86
2023-04-18T20:27:41.146Z,10.76
2023-04-18T20:30:10.069Z,10.84
2023-04-18T20:32:38.435Z,10.71
2023-04-18T20:35:08.400Z,10.64
2023-04-18T20:37:36.820Z,10.58
2023-04-18T20:40:10.910Z,10.55
2023-04-18T20:42:40.901Z,10.54
2023-04-18T20:45:11.087Z,10.57
2023-04-18T20:47:41.226Z,10.49
2023-04-18T20:50:10.512Z,10.55
2023-04-18T20:52:42.868Z,10.65
2023-04-18T20:55:15.329Z,10.68
2023-04-18T20:57:45.820Z,10.71
2023-04-18T21:00:18.406Z,10.66
2023-04-18T21:02:47.096Z,10.82
2023-04-18T21:05:16.900Z,10.76
2023-04-18T21:07:46.628Z,10.92
2023-04-18T21:10:15.187Z,10.76
2023-04-18T21:12:43.737Z,10.72
2023-04-18T21:15:14.812Z,10.96
2023-04-18T21:17:44.998Z,10.89
2023-04-18T21:20:16.750Z,10.80
2023-04-18T21:22:47.971Z,10.77
2023-04-18T21:25:18.700Z,10.76
2023-04-18T21:27:50.941Z,10.78
2023-04-18T21:30:23.253Z,10.73
2023-04-18T21:32:51.561Z,10.70
2023-04-18T21:35:21.924Z,10.57
2023-04-18T21:37:51.892Z,10.59
2023-04-18T21:40:20.608Z,10.54
2023-04-18T21:42:51.148Z,10.54
2023-04-18T21:45:20.724Z,10.61
2023-04-18T21:47:50.095Z,10.50
2023-04-18T21:50:18.254Z,10.45
2023-04-18T21:52:47.503Z,10.40
2023-04-18T21:55:16.234Z,10.23
2023-04-18T21:57:44.495Z,10.20
2023-04-18T22:00:13.767Z,10.15
2023-04-18T22:02:44.875Z,10.03
2023-04-18T22:05:13.871Z,9.90
2023-04-18T22:07:54.524Z,9.89
2023-04-18T22:10:26.630Z,9.80
2023-04-18T22:12:56.267Z,9.76
2023-04-18T22:15:27.848Z,9.80
2023-04-18T22:17:59.125Z,9.93
2023-04-18T22:20:27.893Z,9.79
2023-04-18T22:22:56.593Z,9.81
2023-04-18T22:25:24.848Z,9.68
2023-04-18T22:27:54.801Z,9.76
2023-04-18T22:30:23.747Z,9.86
2023-04-18T22:32:52.725Z,9.79
2023-04-18T22:35:22.999Z,9.84
2023-04-18T22:37:52.378Z,9.83
2023-04-18T22:40:21.832Z,9.79
2023-04-18T22:42:51.843Z,9.90
2023-04-18T22:45:20.434Z,9.79
2023-04-18T22:47:51.197Z,9.85
2023-04-18T22:50:23.590Z,9.95
2023-04-18T22:52:51.886Z,9.84
2023-04-18T22:55:20.673Z,9.88
2023-04-18T22:57:48.974Z,10.04
2023-04-18T23:00:17.760Z,10.09
2023-04-18T23:02:47.905Z,9.89
2023-04-18T23:05:18.040Z,9.87
2023-04-18T23:07:48.066Z,9.90
2023-04-18T23:10:16.342Z,9.93
2023-04-18T23:12:44.953Z,10.04
2023-04-18T23:15:13.107Z,10.00
2023-04-18T23:17:41.637Z,9.99
2023-04-18T23:20:11.267Z,10.05
2023-04-18T23:22:39.734Z,9.95
2023-04-18T23:25:10.103Z,9.99
2023-04-18T23:27:38.958Z,9.89
2023-04-18T23:30:11.556Z,9.95
2023-04-18T23:32:40.098Z,9.95
2023-04-18T23:35:08.873Z,10.09
2023-04-18T23:37:37.201Z,10.00
2023-04-18T23:40:06.804Z,9.96
2023-04-18T23:42:37.002Z,10.01
2023-04-18T23:45:06.775Z,10.03
2023-04-18T23:47:34.940Z,10.02
2023-04-18T23:50:05.118Z,9.94
2023-04-18T23:52:33.458Z,9.96
2023-04-18T23:55:02.390Z,10.06
2023-04-18T23:57:32.258Z,9.94
